Airfield :
LOGIN :

Register | Disclaimer

   EN    FR    IT 

 










Legend :    VFR   Marginal VFR   IFR   Intensive IFR   Very Intensive IFR
Visi :
Ceiling :
>= 8 km
>= 3000ft
5 to 8 km
1000 to 3000 ft
1500m to 5 km
500 to 1000 ft
800 to 1500m
200 to 500 ft
< 800m
< 200 ft
Symbols :   Thunderstorms  Fog  Heavy snow  Heavy precipitations  Wind > 20 kt
SIGMETs :     Misc.  Thunderstorms  Icing  Turbulence  Mountain Waves  Volcanic Ashes







- Airport Elevation : 939 ft


LKKB - Kbely Air Base

CURRENT METAR :
  • 251100Z VRB02KT 9999 FEW011 BKN032 15/12 Q1022 NOSIG

EXPIRED METARs :
  • 251000Z VRB01KT 7000 SCT008 BKN022 BKN027 14/12 Q1021 NOSIG
  • 250900Z VRB02KT 4500 BR SCT005 BKN014 OVC023 13/12 Q1021 NOSIG

TAF TAF LKKB
Valid from the 25 at 06:00 until the 26 at 06:00 UTC


250500Z 2506/2606 VRB02KT 5000 BR SCT005 OVC010
TEMPO 2506/2508 1500 -DZ BR BKN003 OVC005
BECMG 2508/2510 09005KT 8000 OVC015
TEMPO 2510/2515 6000 -RA SCT005 OVC010
BECMG 2515/2517 9999 BKN025
TEMPO 2517/2606 8000 -RA BKN015
No reported NOTAMs for that airfield.



MET'MAP, your aeronautical weather chart ! - Copyright ORBIFLY December 2007 - Disclaimer

ORBIFLY MET'MAP TEAM :

Programming & Development : Alexandra Zaïnal
Concept & Development : Baudouin d'Aumeries
Co-Development & Prog : Marc-Olivier Méhu
Technical & hardware support : Manuel Goepfert

Contact : metmap@orbifly.com




SOURCES & CREDITS :

   NOAA